sensor_id;sensor_type;location;lat;lon;timestamp;temperature;humidity
37410;DHT22;23275;48.914;12.566;2023-07-20T00:02:23;19.00;99.90
37410;DHT22;23275;48.914;12.566;2023-07-20T00:04:49;19.00;99.90
37410;DHT22;23275;48.914;12.566;2023-07-20T00:07:15;19.00;99.90
37410;DHT22;23275;48.914;12.566;2023-07-20T00:09:40;19.00;99.90
37410;DHT22;23275;48.914;12.566;2023-07-20T00:12:06;19.00;99.90
37410;DHT22;23275;48.914;12.566;2023-07-20T00:14:32;19.00;99.90
37410;DHT22;23275;48.914;12.566;2023-07-20T00:16:57;18.90;99.90
37410;DHT22;23275;48.914;12.566;2023-07-20T00:19:26;18.90;99.90
37410;DHT22;23275;48.914;12.566;2023-07-20T00:21:53;18.90;99.90
37410;DHT22;23275;48.914;12.566;2023-07-20T00:24:19;18.90;99.90
37410;DHT22;23275;48.914;12.566;2023-07-20T00:26:45;18.90;99.90
37410;DHT22;23275;48.914;12.566;2023-07-20T00:29:10;19.00;99.90
37410;DHT22;23275;48.914;12.566;2023-07-20T00:31:36;19.00;99.90
37410;DHT22;23275;48.914;12.566;2023-07-20T00:34:03;19.00;99.90
37410;DHT22;23275;48.914;12.566;2023-07-20T00:36:29;19.00;99.90
37410;DHT22;23275;48.914;12.566;2023-07-20T00:38:54;19.00;99.90
37410;DHT22;23275;48.914;12.566;2023-07-20T00:41:20;19.10;99.90
37410;DHT22;23275;48.914;12.566;2023-07-20T00:43:45;19.10;99.90
37410;DHT22;23275;48.914;12.566;2023-07-20T00:46:11;19.20;99.90
37410;DHT22;23275;48.914;12.566;2023-07-20T00:48:37;19.20;99.90
37410;DHT22;23275;48.914;12.566;2023-07-20T00:51:04;19.20;99.90
37410;DHT22;23275;48.914;12.566;2023-07-20T00:53:30;19.20;99.90
37410;DHT22;23275;48.914;12.566;2023-07-20T00:55:56;19.20;99.90
37410;DHT22;23275;48.914;12.566;2023-07-20T00:58:22;19.10;99.90
37410;DHT22;23275;48.914;12.566;2023-07-20T01:00:48;19.10;99.90
37410;DHT22;23275;48.914;12.566;2023-07-20T01:03:13;19.00;99.90
37410;DHT22;23275;48.914;12.566;2023-07-20T01:05:53;19.00;99.90
37410;DHT22;23275;48.914;12.566;2023-07-20T01:11:28;18.80;99.90
37410;DHT22;23275;48.914;12.566;2023-07-20T01:13:57;18.70;99.90
37410;DHT22;23275;48.914;12.566;2023-07-20T01:16:23;18.60;99.90
37410;DHT22;23275;48.914;12.566;2023-07-20T01:18:49;18.50;99.90
37410;DHT22;23275;48.914;12.566;2023-07-20T01:21:22;18.40;99.90
37410;DHT22;23275;48.914;12.566;2023-07-20T01:26:45;18.20;99.90
37410;DHT22;23275;48.914;12.566;2023-07-20T01:32:00;18.10;99.90
37410;DHT22;23275;48.914;12.566;2023-07-20T01:34:29;18.00;99.90
37410;DHT22;23275;48.914;12.566;2023-07-20T01:36:56;18.00;99.90
37410;DHT22;23275;48.914;12.566;2023-07-20T01:39:22;18.00;99.90
37410;DHT22;23275;48.914;12.566;2023-07-20T01:41:48;18.00;99.90
37410;DHT22;23275;48.914;12.566;2023-07-20T01:44:14;18.00;99.90
37410;DHT22;23275;48.914;12.566;2023-07-20T01:46:40;17.90;99.90
37410;DHT22;23275;48.914;12.566;2023-07-20T01:49:06;17.90;99.90
37410;DHT22;23275;48.914;12.566;2023-07-20T01:51:31;17.80;99.90
37410;DHT22;23275;48.914;12.566;2023-07-20T01:53:57;17.70;99.90
37410;DHT22;23275;48.914;12.566;2023-07-20T01:56:22;17.60;99.90
37410;DHT22;23275;48.914;12.566;2023-07-20T01:58:48;17.60;99.90
37410;DHT22;23275;48.914;12.566;2023-07-20T02:01:13;17.60;99.90
37410;DHT22;23275;48.914;12.566;2023-07-20T02:03:39;17.60;99.90
37410;DHT22;23275;48.914;12.566;2023-07-20T02:06:04;17.60;99.90
37410;DHT22;23275;48.914;12.566;2023-07-20T02:08:30;17.60;99.90
37410;DHT22;23275;48.914;12.566;2023-07-20T02:10:56;17.70;99.90
37410;DHT22;23275;48.914;12.566;2023-07-20T02:13:22;17.70;99.90
37410;DHT22;23275;48.914;12.566;2023-07-20T02:15:47;17.70;99.90
37410;DHT22;23275;48.914;12.566;2023-07-20T02:18:15;17.60;99.90
37410;DHT22;23275;48.914;12.566;2023-07-20T02:20:41;17.50;99.90
37410;DHT22;23275;48.914;12.566;2023-07-20T02:23:06;17.50;99.90
37410;DHT22;23275;48.914;12.566;2023-07-20T02:25:32;17.50;99.90
37410;DHT22;23275;48.914;12.566;2023-07-20T02:27:57;17.50;99.90
37410;DHT22;23275;48.914;12.566;2023-07-20T02:30:23;17.50;99.90
37410;DHT22;23275;48.914;12.566;2023-07-20T02:32:49;17.50;99.90
37410;DHT22;23275;48.914;12.566;2023-07-20T02:35:15;17.50;99.90
37410;DHT22;23275;48.914;12.566;2023-07-20T02:37:41;17.50;99.90
37410;DHT22;23275;48.914;12.566;2023-07-20T02:40:07;17.50;99.90
37410;DHT22;23275;48.914;12.566;2023-07-20T02:42:33;17.50;99.90
37410;DHT22;23275;48.914;12.566;2023-07-20T02:44:58;17.50;99.90
37410;DHT22;23275;48.914;12.566;2023-07-20T02:47:24;17.50;99.90
37410;DHT22;23275;48.914;12.566;2023-07-20T02:49:50;17.50;99.90
37410;DHT22;23275;48.914;12.566;2023-07-20T02:52:16;17.50;99.90
37410;DHT22;23275;48.914;12.566;2023-07-20T02:54:41;17.50;99.90
37410;DHT22;23275;48.914;12.566;2023-07-20T02:57:07;17.50;99.90
37410;DHT22;23275;48.914;12.566;2023-07-20T02:59:33;17.50;99.90
37410;DHT22;23275;48.914;12.566;2023-07-20T03:01:58;17.50;99.90
37410;DHT22;23275;48.914;12.566;2023-07-20T03:04:26;17.50;99.90
37410;DHT22;23275;48.914;12.566;2023-07-20T03:06:52;17.40;99.90
37410;DHT22;23275;48.914;12.566;2023-07-20T03:09:18;17.40;99.90
37410;DHT22;23275;48.914;12.566;2023-07-20T03:11:43;17.30;99.90
37410;DHT22;23275;48.914;12.566;2023-07-20T03:14:09;17.30;99.90
37410;DHT22;23275;48.914;12.566;2023-07-20T03:16:36;17.20;99.90
37410;DHT22;23275;48.914;12.566;2023-07-20T03:19:01;17.30;99.90
37410;DHT22;23275;48.914;12.566;2023-07-20T03:21:27;17.30;99.90
37410;DHT22;23275;48.914;12.566;2023-07-20T03:23:52;17.20;99.90
37410;DHT22;23275;48.914;12.566;2023-07-20T03:26:19;17.30;99.90
37410;DHT22;23275;48.914;12.566;2023-07-20T03:28:44;17.30;99.90
37410;DHT22;23275;48.914;12.566;2023-07-20T03:31:10;17.40;99.90
37410;DHT22;23275;48.914;12.566;2023-07-20T03:33:36;17.30;99.90
37410;DHT22;23275;48.914;12.566;2023-07-20T03:36:01;17.40;99.90
37410;DHT22;23275;48.914;12.566;2023-07-20T03:38:27;17.30;99.90
37410;DHT22;23275;48.914;12.566;2023-07-20T03:40:57;17.40;99.90
37410;DHT22;23275;48.914;12.566;2023-07-20T03:43:24;17.30;99.90
37410;DHT22;23275;48.914;12.566;2023-07-20T03:45:50;17.30;99.90
37410;DHT22;23275;48.914;12.566;2023-07-20T03:48:16;17.30;99.90
37410;DHT22;23275;48.914;12.566;2023-07-20T03:50:43;17.30;99.90
37410;DHT22;23275;48.914;12.566;2023-07-20T03:53:09;17.30;99.90
37410;DHT22;23275;48.914;12.566;2023-07-20T03:55:34;17.30;99.90
37410;DHT22;23275;48.914;12.566;2023-07-20T03:58:01;17.30;99.90
37410;DHT22;23275;48.914;12.566;2023-07-20T04:00:27;17.30;99.90
37410;DHT22;23275;48.914;12.566;2023-07-20T04:02:53;17.30;99.90
37410;DHT22;23275;48.914;12.566;2023-07-20T04:05:19;17.30;99.90
37410;DHT22;23275;48.914;12.566;2023-07-20T04:07:44;17.30;99.90
37410;DHT22;23275;48.914;12.566;2023-07-20T04:10:10;17.30;99.90
37410;DHT22;23275;48.914;12.566;2023-07-20T04:12:36;17.40;99.90
37410;DHT22;23275;48.914;12.566;2023-07-20T04:15:01;17.30;99.90
37410;DHT22;23275;48.914;12.566;2023-07-20T04:17:29;17.30;99.90
37410;DHT22;23275;48.914;12.566;2023-07-20T04:19:54;17.40;99.90
37410;DHT22;23275;48.914;12.566;2023-07-20T04:22:20;17.40;99.90
37410;DHT22;23275;48.914;12.566;2023-07-20T04:24:46;17.50;99.90
37410;DHT22;23275;48.914;12.566;2023-07-20T04:27:12;17.50;99.90
37410;DHT22;23275;48.914;12.566;2023-07-20T04:29:37;17.50;99.90
37410;DHT22;23275;48.914;12.566;2023-07-20T04:32:03;17.60;99.90
37410;DHT22;23275;48.914;12.566;2023-07-20T04:34:28;17.60;99.90
37410;DHT22;23275;48.914;12.566;2023-07-20T04:36:54;17.60;99.90
37410;DHT22;23275;48.914;12.566;2023-07-20T04:39:20;17.70;99.90
37410;DHT22;23275;48.914;12.566;2023-07-20T04:41:45;17.70;99.90
37410;DHT22;23275;48.914;12.566;2023-07-20T04:44:11;17.70;99.90
37410;DHT22;23275;48.914;12.566;2023-07-20T04:46:36;17.70;99.90
37410;DHT22;23275;48.914;12.566;2023-07-20T04:49:02;17.90;99.90
37410;DHT22;23275;48.914;12.566;2023-07-20T04:51:27;17.90;99.90
37410;DHT22;23275;48.914;12.566;2023-07-20T04:53:55;17.90;99.90
37410;DHT22;23275;48.914;12.566;2023-07-20T04:56:21;18.00;99.90
37410;DHT22;23275;48.914;12.566;2023-07-20T04:58:48;18.00;99.90
37410;DHT22;23275;48.914;12.566;2023-07-20T05:01:14;18.10;99.90
37410;DHT22;23275;48.914;12.566;2023-07-20T05:03:40;18.20;99.90
37410;DHT22;23275;48.914;12.566;2023-07-20T05:06:05;18.30;99.90
37410;DHT22;23275;48.914;12.566;2023-07-20T05:08:31;18.30;99.90
37410;DHT22;23275;48.914;12.566;2023-07-20T05:10:57;18.40;99.90
37410;DHT22;23275;48.914;12.566;2023-07-20T05:13:24;18.40;99.90
37410;DHT22;23275;48.914;12.566;2023-07-20T05:15:53;18.40;99.90
37410;DHT22;23275;48.914;12.566;2023-07-20T05:18:19;18.50;99.90
37410;DHT22;23275;48.914;12.566;2023-07-20T05:20:49;18.50;99.90
37410;DHT22;23275;48.914;12.566;2023-07-20T05:23:18;18.70;99.90
37410;DHT22;23275;48.914;12.566;2023-07-20T05:25:45;18.80;99.90
37410;DHT22;23275;48.914;12.566;2023-07-20T05:28:10;18.80;99.90
37410;DHT22;23275;48.914;12.566;2023-07-20T05:30:36;18.90;99.90
37410;DHT22;23275;48.914;12.566;2023-07-20T05:33:01;19.00;99.90
37410;DHT22;23275;48.914;12.566;2023-07-20T05:35:27;19.00;99.90
37410;DHT22;23275;48.914;12.566;2023-07-20T05:37:52;19.10;99.90
37410;DHT22;23275;48.914;12.566;2023-07-20T05:40:18;19.20;99.90
37410;DHT22;23275;48.914;12.566;2023-07-20T05:42:45;19.20;99.90
37410;DHT22;23275;48.914;12.566;2023-07-20T05:45:12;19.30;99.90
37410;DHT22;23275;48.914;12.566;2023-07-20T05:47:38;19.30;99.90
37410;DHT22;23275;48.914;12.566;2023-07-20T05:50:03;19.30;99.90
37410;DHT22;23275;48.914;12.566;2023-07-20T05:52:29;19.40;99.90
37410;DHT22;23275;48.914;12.566;2023-07-20T05:54:55;19.50;99.90
37410;DHT22;23275;48.914;12.566;2023-07-20T05:57:20;19.50;99.90
37410;DHT22;23275;48.914;12.566;2023-07-20T05:59:46;19.60;99.90
37410;DHT22;23275;48.914;12.566;2023-07-20T06:02:12;19.70;99.90
37410;DHT22;23275;48.914;12.566;2023-07-20T06:04:38;19.70;99.90
37410;DHT22;23275;48.914;12.566;2023-07-20T06:07:04;19.80;99.90
37410;DHT22;23275;48.914;12.566;2023-07-20T06:09:30;19.90;99.90
37410;DHT22;23275;48.914;12.566;2023-07-20T06:11:56;20.00;99.90
37410;DHT22;23275;48.914;12.566;2023-07-20T06:14:22;20.00;99.90
37410;DHT22;23275;48.914;12.566;2023-07-20T06:16:47;20.10;99.90
37410;DHT22;23275;48.914;12.566;2023-07-20T06:19:13;20.10;99.90
37410;DHT22;23275;48.914;12.566;2023-07-20T06:21:39;20.20;99.90
37410;DHT22;23275;48.914;12.566;2023-07-20T06:24:04;20.40;99.90
37410;DHT22;23275;48.914;12.566;2023-07-20T06:26:31;20.50;99.90
37410;DHT22;23275;48.914;12.566;2023-07-20T06:28:56;20.60;99.90
37410;DHT22;23275;48.914;12.566;2023-07-20T06:31:22;20.70;99.90
37410;DHT22;23275;48.914;12.566;2023-07-20T06:33:47;20.80;99.90
37410;DHT22;23275;48.914;12.566;2023-07-20T06:36:13;20.90;99.90
37410;DHT22;23275;48.914;12.566;2023-07-20T06:38:39;21.00;99.90
37410;DHT22;23275;48.914;12.566;2023-07-20T06:41:05;21.00;99.90
37410;DHT22;23275;48.914;12.566;2023-07-20T06:43:30;21.00;99.90
37410;DHT22;23275;48.914;12.566;2023-07-20T06:45:56;21.10;99.90
37410;DHT22;23275;48.914;12.566;2023-07-20T06:48:22;21.10;99.90
37410;DHT22;23275;48.914;12.566;2023-07-20T06:50:47;21.30;99.90
37410;DHT22;23275;48.914;12.566;2023-07-20T06:53:13;21.20;99.90
37410;DHT22;23275;48.914;12.566;2023-07-20T06:55:39;21.20;99.90
37410;DHT22;23275;48.914;12.566;2023-07-20T06:58:04;21.20;99.90
37410;DHT22;23275;48.914;12.566;2023-07-20T07:00:30;21.20;99.90
37410;DHT22;23275;48.914;12.566;2023-07-20T07:02:55;21.20;99.90
37410;DHT22;23275;48.914;12.566;2023-07-20T07:05:21;21.30;99.90
37410;DHT22;23275;48.914;12.566;2023-07-20T07:07:47;21.50;99.90
37410;DHT22;23275;48.914;12.566;2023-07-20T07:10:13;21.90;99.90
37410;DHT22;23275;48.914;12.566;2023-07-20T07:12:39;22.40;99.90
37410;DHT22;23275;48.914;12.566;2023-07-20T07:15:05;22.90;99.90
37410;DHT22;23275;48.914;12.566;2023-07-20T07:17:33;23.30;99.90
37410;DHT22;23275;48.914;12.566;2023-07-20T07:20:00;23.40;99.90
37410;DHT22;23275;48.914;12.566;2023-07-20T07:22:26;23.40;99.90
37410;DHT22;23275;48.914;12.566;2023-07-20T07:24:51;23.60;99.90
37410;DHT22;23275;48.914;12.566;2023-07-20T07:27:17;23.80;99.90
37410;DHT22;23275;48.914;12.566;2023-07-20T07:29:42;23.60;99.90
37410;DHT22;23275;48.914;12.566;2023-07-20T07:32:11;23.80;99.90
37410;DHT22;23275;48.914;12.566;2023-07-20T07:34:37;23.90;99.90
37410;DHT22;23275;48.914;12.566;2023-07-20T07:37:06;24.00;99.90
37410;DHT22;23275;48.914;12.566;2023-07-20T07:39:32;24.30;99.90
37410;DHT22;23275;48.914;12.566;2023-07-20T07:41:57;24.30;99.90
37410;DHT22;23275;48.914;12.566;2023-07-20T07:44:23;24.20;99.90
37410;DHT22;23275;48.914;12.566;2023-07-20T07:46:49;24.30;99.90
37410;DHT22;23275;48.914;12.566;2023-07-20T07:49:15;24.50;99.90
37410;DHT22;23275;48.914;12.566;2023-07-20T07:51:41;24.80;99.90
37410;DHT22;23275;48.914;12.566;2023-07-20T07:54:06;24.90;99.90
37410;DHT22;23275;48.914;12.566;2023-07-20T07:56:32;25.30;99.90
37410;DHT22;23275;48.914;12.566;2023-07-20T07:58:58;25.30;99.90
37410;DHT22;23275;48.914;12.566;2023-07-20T08:01:23;25.30;99.90
37410;DHT22;23275;48.914;12.566;2023-07-20T08:03:49;25.50;99.90
37410;DHT22;23275;48.914;12.566;2023-07-20T08:06:15;25.60;99.90
37410;DHT22;23275;48.914;12.566;2023-07-20T08:08:40;25.70;99.90
37410;DHT22;23275;48.914;12.566;2023-07-20T08:11:06;25.80;99.90
37410;DHT22;23275;48.914;12.566;2023-07-20T08:13:31;26.10;99.90
37410;DHT22;23275;48.914;12.566;2023-07-20T08:15:58;26.20;99.90
37410;DHT22;23275;48.914;12.566;2023-07-20T08:18:24;26.10;99.90
37410;DHT22;23275;48.914;12.566;2023-07-20T08:20:49;26.00;99.90
37410;DHT22;23275;48.914;12.566;2023-07-20T08:23:15;26.00;99.90
37410;DHT22;23275;48.914;12.566;2023-07-20T08:25:41;25.70;99.90
37410;DHT22;23275;48.914;12.566;2023-07-20T08:28:15;25.20;99.90
37410;DHT22;23275;48.914;12.566;2023-07-20T08:30:43;24.60;99.90
37410;DHT22;23275;48.914;12.566;2023-07-20T08:33:10;24.70;99.90
37410;DHT22;23275;48.914;12.566;2023-07-20T08:35:36;25.20;99.90
37410;DHT22;23275;48.914;12.566;2023-07-20T08:38:01;25.50;99.90
37410;DHT22;23275;48.914;12.566;2023-07-20T08:40:27;25.70;99.90
37410;DHT22;23275;48.914;12.566;2023-07-20T08:42:54;26.20;99.90
37410;DHT22;23275;48.914;12.566;2023-07-20T08:45:22;26.30;99.90
37410;DHT22;23275;48.914;12.566;2023-07-20T08:47:48;26.00;98.80
37410;DHT22;23275;48.914;12.566;2023-07-20T08:50:16;25.90;99.50
37410;DHT22;23275;48.914;12.566;2023-07-20T08:52:42;26.20;99.90
37410;DHT22;23275;48.914;12.566;2023-07-20T08:55:07;26.60;99.90
37410;DHT22;23275;48.914;12.566;2023-07-20T08:57:33;27.20;98.80
37410;DHT22;23275;48.914;12.566;2023-07-20T09:00:02;27.10;98.50
37410;DHT22;23275;48.914;12.566;2023-07-20T09:02:35;27.10;97.40
37410;DHT22;23275;48.914;12.566;2023-07-20T09:05:04;27.00;96.30
37410;DHT22;23275;48.914;12.566;2023-07-20T09:07:31;27.10;94.80
37410;DHT22;23275;48.914;12.566;2023-07-20T09:09:57;27.20;94.30
37410;DHT22;23275;48.914;12.566;2023-07-20T09:12:23;27.30;93.60
37410;DHT22;23275;48.914;12.566;2023-07-20T09:14:49;27.40;93.40
37410;DHT22;23275;48.914;12.566;2023-07-20T09:17:15;27.70;92.30
37410;DHT22;23275;48.914;12.566;2023-07-20T09:19:47;28.40;92.10
37410;DHT22;23275;48.914;12.566;2023-07-20T09:22:13;28.90;90.80
37410;DHT22;23275;48.914;12.566;2023-07-20T09:24:39;29.00;90.00
37410;DHT22;23275;48.914;12.566;2023-07-20T09:27:06;28.70;84.50
37410;DHT22;23275;48.914;12.566;2023-07-20T09:29:32;28.60;86.20
37410;DHT22;23275;48.914;12.566;2023-07-20T09:32:03;28.80;85.40
37410;DHT22;23275;48.914;12.566;2023-07-20T09:34:30;28.50;84.50
37410;DHT22;23275;48.914;12.566;2023-07-20T09:36:59;28.10;85.40
37410;DHT22;23275;48.914;12.566;2023-07-20T09:39:25;28.30;86.30
37410;DHT22;23275;48.914;12.566;2023-07-20T09:41:51;27.80;85.00
37410;DHT22;23275;48.914;12.566;2023-07-20T09:44:17;28.10;83.60
37410;DHT22;23275;48.914;12.566;2023-07-20T09:46:47;28.80;83.40
37410;DHT22;23275;48.914;12.566;2023-07-20T09:49:14;29.40;81.80
37410;DHT22;23275;48.914;12.566;2023-07-20T09:51:40;30.00;81.80
37410;DHT22;23275;48.914;12.566;2023-07-20T09:54:07;30.70;79.60
37410;DHT22;23275;48.914;12.566;2023-07-20T09:56:34;31.10;75.00
37410;DHT22;23275;48.914;12.566;2023-07-20T09:59:00;30.70;72.60
37410;DHT22;23275;48.914;12.566;2023-07-20T10:01:26;30.50;74.10
37410;DHT22;23275;48.914;12.566;2023-07-20T10:03:54;30.40;71.80
37410;DHT22;23275;48.914;12.566;2023-07-20T10:06:24;29.80;71.30
37410;DHT22;23275;48.914;12.566;2023-07-20T10:08:53;29.00;72.20
37410;DHT22;23275;48.914;12.566;2023-07-20T10:11:22;28.90;73.10
37410;DHT22;23275;48.914;12.566;2023-07-20T10:13:51;29.10;71.40
37410;DHT22;23275;48.914;12.566;2023-07-20T10:16:26;30.00;72.70
37410;DHT22;23275;48.914;12.566;2023-07-20T10:19:03;31.00;65.00
37410;DHT22;23275;48.914;12.566;2023-07-20T10:21:30;31.90;66.40
37410;DHT22;23275;48.914;12.566;2023-07-20T10:23:57;32.70;59.80
37410;DHT22;23275;48.914;12.566;2023-07-20T10:26:23;32.70;59.40
37410;DHT22;23275;48.914;12.566;2023-07-20T10:28:49;32.20;59.20
37410;DHT22;23275;48.914;12.566;2023-07-20T10:31:15;31.70;58.80
37410;DHT22;23275;48.914;12.566;2023-07-20T10:33:42;32.30;59.00
37410;DHT22;23275;48.914;12.566;2023-07-20T10:36:10;31.80;58.50
37410;DHT22;23275;48.914;12.566;2023-07-20T10:41:16;34.30;56.60
37410;DHT22;23275;48.914;12.566;2023-07-20T10:43:44;36.10;53.80
37410;DHT22;23275;48.914;12.566;2023-07-20T10:46:12;36.20;48.60
37410;DHT22;23275;48.914;12.566;2023-07-20T10:49:04;35.50;49.00
37410;DHT22;23275;48.914;12.566;2023-07-20T10:51:31;34.10;48.50
37410;DHT22;23275;48.914;12.566;2023-07-20T10:54:03;32.60;51.70
37410;DHT22;23275;48.914;12.566;2023-07-20T10:56:29;31.40;52.90
37410;DHT22;23275;48.914;12.566;2023-07-20T10:58:59;31.00;54.40
37410;DHT22;23275;48.914;12.566;2023-07-20T11:01:28;31.70;55.60
37410;DHT22;23275;48.914;12.566;2023-07-20T11:03:57;33.50;53.10
37410;DHT22;23275;48.914;12.566;2023-07-20T11:09:05;34.10;50.00
37410;DHT22;23275;48.914;12.566;2023-07-20T11:11:36;34.30;49.40
37410;DHT22;23275;48.914;12.566;2023-07-20T11:14:04;33.50;49.40
37410;DHT22;23275;48.914;12.566;2023-07-20T11:16:33;33.00;49.80
37410;DHT22;23275;48.914;12.566;2023-07-20T11:18:59;31.70;50.90
37410;DHT22;23275;48.914;12.566;2023-07-20T11:21:25;30.50;53.70
37410;DHT22;23275;48.914;12.566;2023-07-20T11:23:52;29.20;56.00
37410;DHT22;23275;48.914;12.566;2023-07-20T11:26:18;29.40;56.50
37410;DHT22;23275;48.914;12.566;2023-07-20T11:28:51;30.90;55.20
37410;DHT22;23275;48.914;12.566;2023-07-20T11:31:18;31.50;54.70
37410;DHT22;23275;48.914;12.566;2023-07-20T11:33:44;31.90;53.20
37410;DHT22;23275;48.914;12.566;2023-07-20T11:36:09;31.00;53.10
37410;DHT22;23275;48.914;12.566;2023-07-20T11:38:35;30.40;55.30
37410;DHT22;23275;48.914;12.566;2023-07-20T11:41:03;30.10;54.10
37410;DHT22;23275;48.914;12.566;2023-07-20T11:43:30;29.30;55.30
37410;DHT22;23275;48.914;12.566;2023-07-20T11:45:56;28.40;57.10
37410;DHT22;23275;48.914;12.566;2023-07-20T11:48:21;27.90;59.10
37410;DHT22;23275;48.914;12.566;2023-07-20T11:50:47;27.90;59.50
37410;DHT22;23275;48.914;12.566;2023-07-20T11:53:14;28.00;58.90
37410;DHT22;23275;48.914;12.566;2023-07-20T11:55:40;28.30;59.30
37410;DHT22;23275;48.914;12.566;2023-07-20T11:58:07;28.50;58.10
37410;DHT22;23275;48.914;12.566;2023-07-20T12:00:34;28.00;56.90
37410;DHT22;23275;48.914;12.566;2023-07-20T12:03:01;28.10;57.50
37410;DHT22;23275;48.914;12.566;2023-07-20T12:05:27;28.30;56.70
37410;DHT22;23275;48.914;12.566;2023-07-20T12:07:54;28.30;56.90
37410;DHT22;23275;48.914;12.566;2023-07-20T12:10:26;28.60;58.40
37410;DHT22;23275;48.914;12.566;2023-07-20T12:12:53;28.90;57.70
37410;DHT22;23275;48.914;12.566;2023-07-20T12:15:26;29.10;56.60
37410;DHT22;23275;48.914;12.566;2023-07-20T12:17:56;29.30;57.50
37410;DHT22;23275;48.914;12.566;2023-07-20T12:20:26;29.30;57.50
37410;DHT22;23275;48.914;12.566;2023-07-20T12:22:52;29.40;56.60
37410;DHT22;23275;48.914;12.566;2023-07-20T12:25:17;28.70;55.80
37410;DHT22;23275;48.914;12.566;2023-07-20T12:27:47;28.40;55.70
37410;DHT22;23275;48.914;12.566;2023-07-20T12:30:13;28.10;57.50
37410;DHT22;23275;48.914;12.566;2023-07-20T12:32:42;27.90;58.20
37410;DHT22;23275;48.914;12.566;2023-07-20T12:35:08;27.50;57.70
37410;DHT22;23275;48.914;12.566;2023-07-20T12:37:33;27.30;58.60
37410;DHT22;23275;48.914;12.566;2023-07-20T12:39:59;27.20;57.40
37410;DHT22;23275;48.914;12.566;2023-07-20T12:42:24;26.90;58.50
37410;DHT22;23275;48.914;12.566;2023-07-20T12:44:50;26.70;58.10
37410;DHT22;23275;48.914;12.566;2023-07-20T12:47:17;26.90;58.90
37410;DHT22;23275;48.914;12.566;2023-07-20T12:49:44;27.20;58.60
37410;DHT22;23275;48.914;12.566;2023-07-20T12:52:13;27.50;59.10
37410;DHT22;23275;48.914;12.566;2023-07-20T12:54:39;27.60;57.10
37410;DHT22;23275;48.914;12.566;2023-07-20T12:57:05;27.70;56.50
37410;DHT22;23275;48.914;12.566;2023-07-20T12:59:30;27.50;56.60
37410;DHT22;23275;48.914;12.566;2023-07-20T13:01:56;27.50;55.90
37410;DHT22;23275;48.914;12.566;2023-07-20T13:04:22;27.60;58.50
37410;DHT22;23275;48.914;12.566;2023-07-20T13:06:48;27.60;57.90
37410;DHT22;23275;48.914;12.566;2023-07-20T13:09:13;27.80;58.40
37410;DHT22;23275;48.914;12.566;2023-07-20T13:11:39;27.90;56.90
37410;DHT22;23275;48.914;12.566;2023-07-20T13:14:05;27.90;55.30
37410;DHT22;23275;48.914;12.566;2023-07-20T13:16:30;27.80;55.00
37410;DHT22;23275;48.914;12.566;2023-07-20T13:18:56;27.70;56.60
37410;DHT22;23275;48.914;12.566;2023-07-20T13:21:21;27.60;55.50
37410;DHT22;23275;48.914;12.566;2023-07-20T13:23:48;27.60;54.90
37410;DHT22;23275;48.914;12.566;2023-07-20T13:26:15;27.50;54.50
37410;DHT22;23275;48.914;12.566;2023-07-20T13:28:41;27.40;55.10
37410;DHT22;23275;48.914;12.566;2023-07-20T13:31:07;27.50;55.70
37410;DHT22;23275;48.914;12.566;2023-07-20T13:33:34;27.70;56.90
37410;DHT22;23275;48.914;12.566;2023-07-20T13:36:01;27.70;55.70
37410;DHT22;23275;48.914;12.566;2023-07-20T13:38:27;27.70;57.60
37410;DHT22;23275;48.914;12.566;2023-07-20T13:40:52;27.70;55.70
37410;DHT22;23275;48.914;12.566;2023-07-20T13:43:18;27.70;56.50
37410;DHT22;23275;48.914;12.566;2023-07-20T13:45:44;27.60;56.20
37410;DHT22;23275;48.914;12.566;2023-07-20T13:48:09;27.70;56.70
37410;DHT22;23275;48.914;12.566;2023-07-20T13:50:35;27.80;56.60
37410;DHT22;23275;48.914;12.566;2023-07-20T13:53:00;27.90;57.00
37410;DHT22;23275;48.914;12.566;2023-07-20T13:55:28;27.90;58.10
37410;DHT22;23275;48.914;12.566;2023-07-20T13:57:53;28.00;55.60
37410;DHT22;23275;48.914;12.566;2023-07-20T14:00:19;27.80;56.10
37410;DHT22;23275;48.914;12.566;2023-07-20T14:02:45;27.80;56.60
37410;DHT22;23275;48.914;12.566;2023-07-20T14:05:10;27.70;55.70
37410;DHT22;23275;48.914;12.566;2023-07-20T14:07:36;27.40;55.70
37410;DHT22;23275;48.914;12.566;2023-07-20T14:10:03;27.40;56.10
37410;DHT22;23275;48.914;12.566;2023-07-20T14:12:28;27.40;57.20
37410;DHT22;23275;48.914;12.566;2023-07-20T14:14:54;27.50;56.40
37410;DHT22;23275;48.914;12.566;2023-07-20T14:17:21;27.50;55.30
37410;DHT22;23275;48.914;12.566;2023-07-20T14:19:47;27.20;55.70
37410;DHT22;23275;48.914;12.566;2023-07-20T14:22:13;27.30;55.90
37410;DHT22;23275;48.914;12.566;2023-07-20T14:24:38;27.20;56.00
37410;DHT22;23275;48.914;12.566;2023-07-20T14:27:04;27.20;56.60
37410;DHT22;23275;48.914;12.566;2023-07-20T14:29:30;27.10;54.20
37410;DHT22;23275;48.914;12.566;2023-07-20T14:31:57;26.90;57.30
37410;DHT22;23275;48.914;12.566;2023-07-20T14:34:23;26.70;56.10
37410;DHT22;23275;48.914;12.566;2023-07-20T14:36:48;26.40;57.00
37410;DHT22;23275;48.914;12.566;2023-07-20T14:39:15;26.30;57.70
37410;DHT22;23275;48.914;12.566;2023-07-20T14:41:40;26.10;57.30
37410;DHT22;23275;48.914;12.566;2023-07-20T14:44:06;26.00;57.60
37410;DHT22;23275;48.914;12.566;2023-07-20T14:46:31;26.10;58.10
37410;DHT22;23275;48.914;12.566;2023-07-20T14:48:57;26.30;57.20
37410;DHT22;23275;48.914;12.566;2023-07-20T14:51:24;26.40;57.50
37410;DHT22;23275;48.914;12.566;2023-07-20T14:53:49;26.50;56.40
37410;DHT22;23275;48.914;12.566;2023-07-20T14:56:15;26.50;56.10
37410;DHT22;23275;48.914;12.566;2023-07-20T14:58:41;26.50;57.10
37410;DHT22;23275;48.914;12.566;2023-07-20T15:01:06;26.50;57.30
37410;DHT22;23275;48.914;12.566;2023-07-20T15:03:32;26.50;55.60
37410;DHT22;23275;48.914;12.566;2023-07-20T15:05:57;26.30;55.90
37410;DHT22;23275;48.914;12.566;2023-07-20T15:08:23;26.20;57.00
37410;DHT22;23275;48.914;12.566;2023-07-20T15:10:49;26.20;56.20
37410;DHT22;23275;48.914;12.566;2023-07-20T15:13:15;26.00;57.00
37410;DHT22;23275;48.914;12.566;2023-07-20T15:15:41;26.00;57.60
37410;DHT22;23275;48.914;12.566;2023-07-20T15:18:08;26.10;56.90
37410;DHT22;23275;48.914;12.566;2023-07-20T15:20:34;26.00;57.90
37410;DHT22;23275;48.914;12.566;2023-07-20T15:22:59;26.00;57.10
37410;DHT22;23275;48.914;12.566;2023-07-20T15:25:25;26.00;57.30